sensor_id;sensor_type;location;lat;lon;timestamp;pressure;altitude;pressure_sealevel;temperature;humidity
81379;BME280;70830;42.290;-71.354;2023-06-22T00:02:00;101967.38;;;18.87;47.82
81379;BME280;70830;42.290;-71.354;2023-06-22T00:04:27;101961.59;;;18.79;48.02
81379;BME280;70830;42.290;-71.354;2023-06-22T00:06:53;101969.06;;;18.72;47.95
81379;BME280;70830;42.290;-71.354;2023-06-22T00:09:19;101958.88;;;18.63;48.02
81379;BME280;70830;42.290;-71.354;2023-06-22T00:11:45;101968.34;;;18.53;47.74
81379;BME280;70830;42.290;-71.354;2023-06-22T00:14:10;101966.19;;;18.43;48.66
81379;BME280;70830;42.290;-71.354;2023-06-22T00:16:36;101965.84;;;18.33;49.51
81379;BME280;70830;42.290;-71.354;2023-06-22T00:19:02;101961.75;;;18.26;48.67
81379;BME280;70830;42.290;-71.354;2023-06-22T00:21:29;101963.13;;;18.17;48.87
81379;BME280;70830;42.290;-71.354;2023-06-22T00:23:56;101968.84;;;18.10;49.87
81379;BME280;70830;42.290;-71.354;2023-06-22T00:26:23;101961.22;;;18.02;49.29
81379;BME280;70830;42.290;-71.354;2023-06-22T00:28:49;101968.69;;;17.96;48.95
81379;BME280;70830;42.290;-71.354;2023-06-22T00:31:14;101971.91;;;17.85;49.95
81379;BME280;70830;42.290;-71.354;2023-06-22T00:33:40;101976.75;;;17.77;49.51
81379;BME280;70830;42.290;-71.354;2023-06-22T00:36:06;101978.16;;;17.67;48.94
81379;BME280;70830;42.290;-71.354;2023-06-22T00:38:38;101982.06;;;17.60;49.78
81379;BME280;70830;42.290;-71.354;2023-06-22T00:41:05;101973.66;;;17.50;50.63
81379;BME280;70830;42.290;-71.354;2023-06-22T00:43:31;101972.28;;;17.42;50.78
81379;BME280;70830;42.290;-71.354;2023-06-22T00:45:57;101977.06;;;17.35;49.88
81379;BME280;70830;42.290;-71.354;2023-06-22T00:48:24;101977.50;;;17.26;50.71
81379;BME280;70830;42.290;-71.354;2023-06-22T00:50:50;101984.06;;;17.19;51.09
81379;BME280;70830;42.290;-71.354;2023-06-22T00:53:16;101985.19;;;17.14;50.40
81379;BME280;70830;42.290;-71.354;2023-06-22T00:55:44;101982.91;;;17.06;50.76
81379;BME280;70830;42.290;-71.354;2023-06-22T00:58:17;101990.38;;;16.98;51.79
81379;BME280;70830;42.290;-71.354;2023-06-22T01:00:47;101982.75;;;16.91;52.05
81379;BME280;70830;42.290;-71.354;2023-06-22T01:03:13;101997.31;;;16.83;52.63
81379;BME280;70830;42.290;-71.354;2023-06-22T01:05:40;102004.72;;;16.77;52.19
81379;BME280;70830;42.290;-71.354;2023-06-22T01:11:01;102006.19;;;16.64;52.90
81379;BME280;70830;42.290;-71.354;2023-06-22T01:16:27;102011.31;;;16.48;53.59
81379;BME280;70830;42.290;-71.354;2023-06-22T01:19:09;102006.22;;;16.42;54.00
81379;BME280;70830;42.290;-71.354;2023-06-22T01:21:44;102011.84;;;16.36;53.78
81379;BME280;70830;42.290;-71.354;2023-06-22T01:24:22;102007.66;;;16.31;54.13
81379;BME280;70830;42.290;-71.354;2023-06-22T01:29:43;102014.38;;;16.19;53.42
81379;BME280;70830;42.290;-71.354;2023-06-22T01:32:11;102015.44;;;16.15;54.36
81379;BME280;70830;42.290;-71.354;2023-06-22T01:34:39;102020.97;;;16.10;54.67
81379;BME280;70830;42.290;-71.354;2023-06-22T01:37:06;102016.75;;;16.05;55.21
81379;BME280;70830;42.290;-71.354;2023-06-22T01:39:33;102024.81;;;16.03;54.72
81379;BME280;70830;42.290;-71.354;2023-06-22T01:42:03;102008.16;;;15.98;55.08
81379;BME280;70830;42.290;-71.354;2023-06-22T01:44:32;102007.44;;;15.95;55.12
81379;BME280;70830;42.290;-71.354;2023-06-22T01:47:00;102010.28;;;15.90;55.81
81379;BME280;70830;42.290;-71.354;2023-06-22T01:49:26;102011.34;;;15.86;56.36
81379;BME280;70830;42.290;-71.354;2023-06-22T01:51:52;102002.69;;;15.81;56.50
81379;BME280;70830;42.290;-71.354;2023-06-22T01:54:19;102011.75;;;15.77;56.64
81379;BME280;70830;42.290;-71.354;2023-06-22T01:56:45;102018.97;;;15.74;56.66
81379;BME280;70830;42.290;-71.354;2023-06-22T01:59:20;102008.50;;;15.69;57.35
81379;BME280;70830;42.290;-71.354;2023-06-22T02:01:58;102007.84;;;15.64;57.39
81379;BME280;70830;42.290;-71.354;2023-06-22T02:04:29;102006.22;;;15.60;57.60
81379;BME280;70830;42.290;-71.354;2023-06-22T02:06:59;102004.69;;;15.55;57.64
81379;BME280;70830;42.290;-71.354;2023-06-22T02:09:29;102000.44;;;15.51;58.58
81379;BME280;70830;42.290;-71.354;2023-06-22T02:11:56;102004.16;;;15.47;58.85
81379;BME280;70830;42.290;-71.354;2023-06-22T02:14:23;102002.56;;;15.41;57.64
81379;BME280;70830;42.290;-71.354;2023-06-22T02:16:51;101992.97;;;15.37;58.09
81379;BME280;70830;42.290;-71.354;2023-06-22T02:19:24;101999.34;;;15.33;58.89
81379;BME280;70830;42.290;-71.354;2023-06-22T02:21:50;101996.81;;;15.30;59.18
81379;BME280;70830;42.290;-71.354;2023-06-22T02:24:16;101992.53;;;15.26;58.40
81379;BME280;70830;42.290;-71.354;2023-06-22T02:26:43;101987.34;;;15.23;58.59
81379;BME280;70830;42.290;-71.354;2023-06-22T02:29:11;101981.28;;;15.19;58.71
81379;BME280;70830;42.290;-71.354;2023-06-22T02:31:37;101985.00;;;15.15;58.53
81379;BME280;70830;42.290;-71.354;2023-06-22T02:34:03;101989.53;;;15.12;60.16
81379;BME280;70830;42.290;-71.354;2023-06-22T02:36:29;101984.41;;;15.07;60.66
81379;BME280;70830;42.290;-71.354;2023-06-22T02:38:57;101989.00;;;15.04;60.35
81379;BME280;70830;42.290;-71.354;2023-06-22T02:41:24;101994.41;;;15.01;60.42
81379;BME280;70830;42.290;-71.354;2023-06-22T02:43:50;101985.63;;;14.99;60.12
81379;BME280;70830;42.290;-71.354;2023-06-22T02:46:16;101991.84;;;14.98;60.97
81379;BME280;70830;42.290;-71.354;2023-06-22T02:48:42;101995.47;;;14.97;61.18
81379;BME280;70830;42.290;-71.354;2023-06-22T02:51:08;101984.03;;;14.95;59.68
81379;BME280;70830;42.290;-71.354;2023-06-22T02:53:34;101976.16;;;14.92;59.78
81379;BME280;70830;42.290;-71.354;2023-06-22T02:56:02;101973.59;;;14.90;60.69
81379;BME280;70830;42.290;-71.354;2023-06-22T02:58:31;101971.91;;;14.88;60.79
81379;BME280;70830;42.290;-71.354;2023-06-22T03:01:05;101972.94;;;14.84;60.86
81379;BME280;70830;42.290;-71.354;2023-06-22T03:03:31;101966.84;;;14.82;60.58
81379;BME280;70830;42.290;-71.354;2023-06-22T03:05:57;101969.69;;;14.76;61.49
81379;BME280;70830;42.290;-71.354;2023-06-22T03:08:23;101965.34;;;14.75;63.09
81379;BME280;70830;42.290;-71.354;2023-06-22T03:10:49;101971.63;;;14.72;61.56
81379;BME280;70830;42.290;-71.354;2023-06-22T03:13:15;101970.06;;;14.66;62.57
81379;BME280;70830;42.290;-71.354;2023-06-22T03:15:42;101977.34;;;14.61;62.01
81379;BME280;70830;42.290;-71.354;2023-06-22T03:18:08;101979.28;;;14.56;62.51
81379;BME280;70830;42.290;-71.354;2023-06-22T03:20:33;101979.53;;;14.50;63.10
81379;BME280;70830;42.290;-71.354;2023-06-22T03:22:59;101974.38;;;14.46;62.34
81379;BME280;70830;42.290;-71.354;2023-06-22T03:25:25;101969.31;;;14.40;62.73
81379;BME280;70830;42.290;-71.354;2023-06-22T03:27:51;101969.47;;;14.35;63.50
81379;BME280;70830;42.290;-71.354;2023-06-22T03:30:17;101974.00;;;14.32;63.34
81379;BME280;70830;42.290;-71.354;2023-06-22T03:32:43;101972.41;;;14.26;64.15
81379;BME280;70830;42.290;-71.354;2023-06-22T03:35:09;101965.47;;;14.22;62.75
81379;BME280;70830;42.290;-71.354;2023-06-22T03:37:38;101968.25;;;14.19;63.94
81379;BME280;70830;42.290;-71.354;2023-06-22T03:40:05;101967.53;;;14.14;63.76
81379;BME280;70830;42.290;-71.354;2023-06-22T03:42:31;101964.97;;;14.11;63.01
81379;BME280;70830;42.290;-71.354;2023-06-22T03:44:56;101957.19;;;14.07;63.80
81379;BME280;70830;42.290;-71.354;2023-06-22T03:47:22;101967.03;;;14.03;64.31
81379;BME280;70830;42.290;-71.354;2023-06-22T03:49:49;101967.09;;;14.02;65.01
81379;BME280;70830;42.290;-71.354;2023-06-22T03:52:15;101956.53;;;14.00;65.00
81379;BME280;70830;42.290;-71.354;2023-06-22T03:54:40;101944.13;;;14.01;63.63
81379;BME280;70830;42.290;-71.354;2023-06-22T03:57:06;101938.09;;;13.97;63.76
81379;BME280;70830;42.290;-71.354;2023-06-22T03:59:32;101941.66;;;13.96;63.33
81379;BME280;70830;42.290;-71.354;2023-06-22T04:01:58;101946.22;;;13.92;63.72
81379;BME280;70830;42.290;-71.354;2023-06-22T04:04:24;101942.78;;;13.89;64.48
81379;BME280;70830;42.290;-71.354;2023-06-22T04:06:50;101943.78;;;13.86;65.79
81379;BME280;70830;42.290;-71.354;2023-06-22T04:09:16;101943.88;;;13.83;65.55
81379;BME280;70830;42.290;-71.354;2023-06-22T04:11:42;101938.56;;;13.83;66.06
81379;BME280;70830;42.290;-71.354;2023-06-22T04:14:08;101930.69;;;13.82;65.20
81379;BME280;70830;42.290;-71.354;2023-06-22T04:16:34;101938.56;;;13.83;66.01
81379;BME280;70830;42.290;-71.354;2023-06-22T04:18:59;101929.69;;;13.84;66.67
81379;BME280;70830;42.290;-71.354;2023-06-22T04:21:26;101935.81;;;13.86;66.12
81379;BME280;70830;42.290;-71.354;2023-06-22T04:23:51;101932.22;;;13.87;66.36
81379;BME280;70830;42.290;-71.354;2023-06-22T04:26:17;101930.53;;;13.86;66.58
81379;BME280;70830;42.290;-71.354;2023-06-22T04:28:47;101930.56;;;13.85;66.54
81379;BME280;70830;42.290;-71.354;2023-06-22T04:31:17;101931.53;;;13.82;67.76
81379;BME280;70830;42.290;-71.354;2023-06-22T04:33:46;101924.53;;;13.80;66.52
81379;BME280;70830;42.290;-71.354;2023-06-22T04:36:12;101934.31;;;13.78;66.86
81379;BME280;70830;42.290;-71.354;2023-06-22T04:38:39;101931.75;;;13.76;66.27
81379;BME280;70830;42.290;-71.354;2023-06-22T04:41:05;101933.56;;;13.74;66.20
81379;BME280;70830;42.290;-71.354;2023-06-22T04:43:33;101927.41;;;13.74;67.90
81379;BME280;70830;42.290;-71.354;2023-06-22T04:45:59;101926.53;;;13.73;67.83
81379;BME280;70830;42.290;-71.354;2023-06-22T04:48:31;101926.53;;;13.73;67.41
81379;BME280;70830;42.290;-71.354;2023-06-22T04:50:59;101929.25;;;13.72;67.95
81379;BME280;70830;42.290;-71.354;2023-06-22T04:53:29;101918.72;;;13.70;67.29
81379;BME280;70830;42.290;-71.354;2023-06-22T04:55:55;101918.78;;;13.67;67.92
81379;BME280;70830;42.290;-71.354;2023-06-22T04:58:21;101921.56;;;13.64;68.35
81379;BME280;70830;42.290;-71.354;2023-06-22T05:00:47;101911.94;;;13.62;68.08
81379;BME280;70830;42.290;-71.354;2023-06-22T05:03:17;101915.56;;;13.59;67.88
81379;BME280;70830;42.290;-71.354;2023-06-22T05:05:44;101928.84;;;13.58;68.58
81379;BME280;70830;42.290;-71.354;2023-06-22T05:08:10;101926.25;;;13.56;68.21
81379;BME280;70830;42.290;-71.354;2023-06-22T05:10:38;101931.59;;;13.55;68.75
81379;BME280;70830;42.290;-71.354;2023-06-22T05:13:04;101921.09;;;13.52;68.23
81379;BME280;70830;42.290;-71.354;2023-06-22T05:15:30;101931.69;;;13.52;68.03
81379;BME280;70830;42.290;-71.354;2023-06-22T05:18:02;101931.84;;;13.47;67.37
81379;BME280;70830;42.290;-71.354;2023-06-22T05:20:31;101933.78;;;13.42;67.62
81379;BME280;70830;42.290;-71.354;2023-06-22T05:22:59;101928.66;;;13.38;68.70
81379;BME280;70830;42.290;-71.354;2023-06-22T05:25:25;101932.28;;;13.34;68.07
81379;BME280;70830;42.290;-71.354;2023-06-22T05:27:52;101938.66;;;13.28;68.09
81379;BME280;70830;42.290;-71.354;2023-06-22T05:30:17;101937.94;;;13.23;68.19
81379;BME280;70830;42.290;-71.354;2023-06-22T05:32:44;101931.03;;;13.19;68.28
81379;BME280;70830;42.290;-71.354;2023-06-22T05:35:10;101927.59;;;13.15;69.08
81379;BME280;70830;42.290;-71.354;2023-06-22T05:37:36;101930.34;;;13.12;69.27
81379;BME280;70830;42.290;-71.354;2023-06-22T05:40:02;101920.78;;;13.08;69.17
81379;BME280;70830;42.290;-71.354;2023-06-22T05:42:29;101925.28;;;13.05;68.34
81379;BME280;70830;42.290;-71.354;2023-06-22T05:44:56;101917.44;;;13.00;67.87
81379;BME280;70830;42.290;-71.354;2023-06-22T05:47:21;101916.69;;;12.97;68.80
81379;BME280;70830;42.290;-71.354;2023-06-22T05:49:48;101915.06;;;12.93;68.46
81379;BME280;70830;42.290;-71.354;2023-06-22T05:52:14;101914.28;;;12.89;68.63
81379;BME280;70830;42.290;-71.354;2023-06-22T05:54:40;101912.44;;;12.91;68.99
81379;BME280;70830;42.290;-71.354;2023-06-22T05:57:07;101916.84;;;12.92;69.14
81379;BME280;70830;42.290;-71.354;2023-06-22T05:59:33;101913.97;;;12.98;68.75
81379;BME280;70830;42.290;-71.354;2023-06-22T06:01:58;101912.03;;;13.06;69.18
81379;BME280;70830;42.290;-71.354;2023-06-22T06:04:25;101912.63;;;13.14;69.47
81379;BME280;70830;42.290;-71.354;2023-06-22T06:06:51;101911.53;;;13.21;68.88
81379;BME280;70830;42.290;-71.354;2023-06-22T06:09:19;101903.31;;;13.29;69.35
81379;BME280;70830;42.290;-71.354;2023-06-22T06:11:45;101893.38;;;13.36;69.02
81379;BME280;70830;42.290;-71.354;2023-06-22T06:14:11;101891.38;;;13.42;69.32
81379;BME280;70830;42.290;-71.354;2023-06-22T06:16:38;101892.91;;;13.49;69.59
81379;BME280;70830;42.290;-71.354;2023-06-22T06:19:04;101883.97;;;13.53;68.69
81379;BME280;70830;42.290;-71.354;2023-06-22T06:21:30;101880.31;;;13.56;69.77
81379;BME280;70830;42.290;-71.354;2023-06-22T06:23:56;101889.16;;;13.56;69.84
81379;BME280;70830;42.290;-71.354;2023-06-22T06:26:21;101883.91;;;13.55;69.60
81379;BME280;70830;42.290;-71.354;2023-06-22T06:28:54;101882.22;;;13.52;69.21
81379;BME280;70830;42.290;-71.354;2023-06-22T06:31:20;101884.94;;;13.51;68.97
81379;BME280;70830;42.290;-71.354;2023-06-22T06:33:46;101883.25;;;13.48;68.68
81379;BME280;70830;42.290;-71.354;2023-06-22T06:36:12;101885.91;;;13.48;68.59
81379;BME280;70830;42.290;-71.354;2023-06-22T06:38:38;101892.16;;;13.46;68.83
81379;BME280;70830;42.290;-71.354;2023-06-22T06:41:04;101893.06;;;13.45;68.98
81379;BME280;70830;42.290;-71.354;2023-06-22T06:43:30;101894.03;;;13.42;69.52
81379;BME280;70830;42.290;-71.354;2023-06-22T06:45:55;101891.44;;;13.41;69.15
81379;BME280;70830;42.290;-71.354;2023-06-22T06:48:21;101887.09;;;13.40;69.44
81379;BME280;70830;42.290;-71.354;2023-06-22T06:50:47;101879.06;;;13.41;69.54
81379;BME280;70830;42.290;-71.354;2023-06-22T06:53:13;101875.50;;;13.42;69.11
81379;BME280;70830;42.290;-71.354;2023-06-22T06:55:39;101875.47;;;13.44;69.14
81379;BME280;70830;42.290;-71.354;2023-06-22T06:58:05;101879.78;;;13.46;69.13
81379;BME280;70830;42.290;-71.354;2023-06-22T07:00:33;101876.13;;;13.50;69.23
81379;BME280;70830;42.290;-71.354;2023-06-22T07:02:59;101876.84;;;13.55;69.01
81379;BME280;70830;42.290;-71.354;2023-06-22T07:05:25;101874.03;;;13.60;69.35
81379;BME280;70830;42.290;-71.354;2023-06-22T07:07:50;101877.25;;;13.68;69.61
81379;BME280;70830;42.290;-71.354;2023-06-22T07:10:16;101885.94;;;13.73;70.13
81379;BME280;70830;42.290;-71.354;2023-06-22T07:12:42;101889.25;;;13.78;70.21
81379;BME280;70830;42.290;-71.354;2023-06-22T07:15:09;101895.22;;;13.84;69.89
81379;BME280;70830;42.290;-71.354;2023-06-22T07:17:37;101884.41;;;13.90;69.97
81379;BME280;70830;42.290;-71.354;2023-06-22T07:20:05;101878.88;;;13.96;69.39
81379;BME280;70830;42.290;-71.354;2023-06-22T07:22:41;101875.03;;;14.05;69.16
81379;BME280;70830;42.290;-71.354;2023-06-22T07:25:08;101876.53;;;14.12;69.48
81379;BME280;70830;42.290;-71.354;2023-06-22T07:27:44;101876.28;;;14.20;69.70
81379;BME280;70830;42.290;-71.354;2023-06-22T07:30:11;101876.03;;;14.26;68.83
81379;BME280;70830;42.290;-71.354;2023-06-22T07:32:37;101881.06;;;14.33;69.69
81379;BME280;70830;42.290;-71.354;2023-06-22T07:35:03;101872.84;;;14.41;69.17
81379;BME280;70830;42.290;-71.354;2023-06-22T07:37:30;101872.59;;;14.47;69.12
81379;BME280;70830;42.290;-71.354;2023-06-22T07:39:59;101872.38;;;14.53;69.16
81379;BME280;70830;42.290;-71.354;2023-06-22T07:42:28;101865.97;;;14.58;68.70
81379;BME280;70830;42.290;-71.354;2023-06-22T07:44:55;101866.59;;;14.65;69.00
81379;BME280;70830;42.290;-71.354;2023-06-22T07:47:21;101858.44;;;14.69;68.80
81379;BME280;70830;42.290;-71.354;2023-06-22T07:49:51;101859.06;;;14.76;68.84
81379;BME280;70830;42.290;-71.354;2023-06-22T07:52:17;101858.09;;;14.79;68.57
81379;BME280;70830;42.290;-71.354;2023-06-22T07:54:43;101855.31;;;14.82;69.03
81379;BME280;70830;42.290;-71.354;2023-06-22T07:57:09;101860.56;;;14.83;68.20
81379;BME280;70830;42.290;-71.354;2023-06-22T07:59:35;101850.72;;;14.85;68.90
81379;BME280;70830;42.290;-71.354;2023-06-22T08:02:02;101846.19;;;14.89;68.02
81379;BME280;70830;42.290;-71.354;2023-06-22T08:04:28;101845.25;;;14.90;68.31
81379;BME280;70830;42.290;-71.354;2023-06-22T08:06:56;101856.66;;;14.92;68.21
81379;BME280;70830;42.290;-71.354;2023-06-22T08:09:22;101845.13;;;14.93;68.54
81379;BME280;70830;42.290;-71.354;2023-06-22T08:11:48;101846.91;;;14.92;67.85
81379;BME280;70830;42.290;-71.354;2023-06-22T08:14:14;101851.31;;;14.93;68.28
81379;BME280;70830;42.290;-71.354;2023-06-22T08:16:41;101855.59;;;14.96;68.25
81379;BME280;70830;42.290;-71.354;2023-06-22T08:19:07;101862.59;;;14.98;68.12
81379;BME280;70830;42.290;-71.354;2023-06-22T08:21:33;101866.13;;;14.99;68.26
81379;BME280;70830;42.290;-71.354;2023-06-22T08:23:59;101861.69;;;14.99;67.45
81379;BME280;70830;42.290;-71.354;2023-06-22T08:26:25;101862.41;;;15.03;68.31
81379;BME280;70830;42.290;-71.354;2023-06-22T08:28:51;101865.84;;;15.05;67.39
81379;BME280;70830;42.290;-71.354;2023-06-22T08:31:18;101864.06;;;15.05;67.44
81379;BME280;70830;42.290;-71.354;2023-06-22T08:33:44;101868.50;;;15.05;68.07
81379;BME280;70830;42.290;-71.354;2023-06-22T08:36:11;101867.69;;;15.04;67.47
81379;BME280;70830;42.290;-71.354;2023-06-22T08:38:38;101866.72;;;15.05;68.07
81379;BME280;70830;42.290;-71.354;2023-06-22T08:41:04;101857.06;;;15.04;67.73
81379;BME280;70830;42.290;-71.354;2023-06-22T08:43:30;101858.03;;;15.02;67.87
81379;BME280;70830;42.290;-71.354;2023-06-22T08:45:56;101853.63;;;15.01;67.86
81379;BME280;70830;42.290;-71.354;2023-06-22T08:48:22;101865.19;;;15.00;68.23
81379;BME280;70830;42.290;-71.354;2023-06-22T08:50:48;101865.31;;;14.97;68.09
81379;BME280;70830;42.290;-71.354;2023-06-22T08:53:13;101873.41;;;14.94;68.02
81379;BME280;70830;42.290;-71.354;2023-06-22T08:55:39;101872.59;;;14.92;67.01
81379;BME280;70830;42.290;-71.354;2023-06-22T08:58:05;101869.22;;;14.88;67.68
81379;BME280;70830;42.290;-71.354;2023-06-22T09:00:32;101864.81;;;14.87;67.59
81379;BME280;70830;42.290;-71.354;2023-06-22T09:03:00;101864.81;;;14.87;67.41
81379;BME280;70830;42.290;-71.354;2023-06-22T09:05:26;101868.34;;;14.88;67.36
81379;BME280;70830;42.290;-71.354;2023-06-22T09:07:52;101861.28;;;14.87;67.70
81379;BME280;70830;42.290;-71.354;2023-06-22T09:10:20;101862.22;;;14.86;67.70
81379;BME280;70830;42.290;-71.354;2023-06-22T09:12:46;101866.72;;;14.84;67.47
81379;BME280;70830;42.290;-71.354;2023-06-22T09:15:12;101867.59;;;14.84;67.89
81379;BME280;70830;42.290;-71.354;2023-06-22T09:17:38;101865.78;;;14.85;67.45
81379;BME280;70830;42.290;-71.354;2023-06-22T09:20:04;101857.78;;;14.86;68.17
81379;BME280;70830;42.290;-71.354;2023-06-22T09:22:31;101865.75;;;14.86;67.74
81379;BME280;70830;42.290;-71.354;2023-06-22T09:24:58;101864.00;;;14.85;67.81
81379;BME280;70830;42.290;-71.354;2023-06-22T09:27:25;101871.91;;;14.87;68.18
81379;BME280;70830;42.290;-71.354;2023-06-22T09:29:51;101881.63;;;14.88;67.53
81379;BME280;70830;42.290;-71.354;2023-06-22T09:32:17;101885.16;;;14.88;67.67
81379;BME280;70830;42.290;-71.354;2023-06-22T09:34:42;101877.09;;;14.90;67.92
81379;BME280;70830;42.290;-71.354;2023-06-22T09:37:08;101885.88;;;14.92;67.22
81379;BME280;70830;42.290;-71.354;2023-06-22T09:39:34;101885.75;;;14.95;66.89
81379;BME280;70830;42.290;-71.354;2023-06-22T09:42:01;101888.22;;;14.99;67.62
81379;BME280;70830;42.290;-71.354;2023-06-22T09:44:27;101891.69;;;15.01;66.97
81379;BME280;70830;42.290;-71.354;2023-06-22T09:46:53;101885.44;;;15.02;67.11
81379;BME280;70830;42.290;-71.354;2023-06-22T09:49:19;101884.59;;;15.02;67.59
81379;BME280;70830;42.290;-71.354;2023-06-22T09:51:45;101897.00;;;15.01;67.07
81379;BME280;70830;42.290;-71.354;2023-06-22T09:54:11;101884.59;;;15.02;67.86
81379;BME280;70830;42.290;-71.354;2023-06-22T09:56:36;101897.72;;;15.05;66.83
81379;BME280;70830;42.290;-71.354;2023-06-22T09:59:03;101891.38;;;15.09;67.86
81379;BME280;70830;42.290;-71.354;2023-06-22T10:01:29;101899.16;;;15.13;67.07
81379;BME280;70830;42.290;-71.354;2023-06-22T10:03:55;101897.25;;;15.17;66.87
81379;BME280;70830;42.290;-71.354;2023-06-22T10:06:22;101907.81;;;15.18;66.92
81379;BME280;70830;42.290;-71.354;2023-06-22T10:08:50;101908.59;;;15.20;67.05
81379;BME280;70830;42.290;-71.354;2023-06-22T10:11:15;101904.88;;;15.24;66.43
81379;BME280;70830;42.290;-71.354;2023-06-22T10:13:41;101910.03;;;15.29;66.99
81379;BME280;70830;42.290;-71.354;2023-06-22T10:16:07;101909.84;;;15.33;67.05
81379;BME280;70830;42.290;-71.354;2023-06-22T10:18:33;101900.94;;;15.34;66.88
81379;BME280;70830;42.290;-71.354;2023-06-22T10:20:59;101915.75;;;15.40;66.98
81379;BME280;70830;42.290;-71.354;2023-06-22T10:23:25;101908.50;;;15.45;66.69
81379;BME280;70830;42.290;-71.354;2023-06-22T10:25:51;101918.94;;;15.50;67.07
81379;BME280;70830;42.290;-71.354;2023-06-22T10:28:17;101920.41;;;15.57;65.82
81379;BME280;70830;42.290;-71.354;2023-06-22T10:30:43;101917.50;;;15.63;65.75
81379;BME280;70830;42.290;-71.354;2023-06-22T10:33:10;101925.09;;;15.72;66.44
81379;BME280;70830;42.290;-71.354;2023-06-22T10:35:37;101931.00;;;15.78;65.90
81379;BME280;70830;42.290;-71.354;2023-06-22T10:38:03;101924.50;;;15.85;65.68
81379;BME280;70830;42.290;-71.354;2023-06-22T10:40:30;101928.72;;;15.91;65.52
81379;BME280;70830;42.290;-71.354;2023-06-22T10:42:56;101931.69;;;16.03;65.66
81379;BME280;70830;42.290;-71.354;2023-06-22T10:45:22;101923.09;;;16.17;64.94
81379;BME280;70830;42.290;-71.354;2023-06-22T10:47:47;101911.75;;;16.32;65.29
81379;BME280;70830;42.290;-71.354;2023-06-22T10:50:14;101918.16;;;16.47;64.83
81379;BME280;70830;42.290;-71.354;2023-06-22T10:52:40;101919.41;;;16.60;64.21
81379;BME280;70830;42.290;-71.354;2023-06-22T10:55:10;101910.03;;;16.70;64.06
81379;BME280;70830;42.290;-71.354;2023-06-22T10:57:36;101918.25;;;16.84;64.53
81379;BME280;70830;42.290;-71.354;2023-06-22T11:00:02;101920.75;;;17.06;64.28
81379;BME280;70830;42.290;-71.354;2023-06-22T11:02:31;101915.41;;;17.41;63.59
81379;BME280;70830;42.290;-71.354;2023-06-22T11:04:57;101910.75;;;17.81;62.79
81379;BME280;70830;42.290;-71.354;2023-06-22T11:07:26;101913.13;;;18.37;61.77
81379;BME280;70830;42.290;-71.354;2023-06-22T11:09:54;101918.31;;;18.88;60.71
81379;BME280;70830;42.290;-71.354;2023-06-22T11:12:20;101917.84;;;19.27;59.54
81379;BME280;70830;42.290;-71.354;2023-06-22T11:14:46;101921.91;;;19.49;58.96
81379;BME280;70830;42.290;-71.354;2023-06-22T11:17:12;101917.88;;;19.42;58.70
81379;BME280;70830;42.290;-71.354;2023-06-22T11:19:38;101922.28;;;19.28;59.04
81379;BME280;70830;42.290;-71.354;2023-06-22T11:22:03;101916.50;;;19.20;59.01
81379;BME280;70830;42.290;-71.354;2023-06-22T11:24:29;101925.19;;;19.23;58.82
81379;BME280;70830;42.290;-71.354;2023-06-22T11:26:55;101919.19;;;19.35;58.85
81379;BME280;70830;42.290;-71.354;2023-06-22T11:29:21;101918.69;;;19.58;58.42
81379;BME280;70830;42.290;-71.354;2023-06-22T11:31:47;101920.41;;;19.89;58.15
81379;BME280;70830;42.290;-71.354;2023-06-22T11:34:13;101906.88;;;20.06;57.33
81379;BME280;70830;42.290;-71.354;2023-06-22T11:36:39;101914.38;;;20.15;57.40
81379;BME280;70830;42.290;-71.354;2023-06-22T11:39:05;101912.88;;;20.39;56.19
81379;BME280;70830;42.290;-71.354;2023-06-22T11:41:31;101921.47;;;20.44;56.26
81379;BME280;70830;42.290;-71.354;2023-06-22T11:43:57;101919.59;;;20.47;56.59
81379;BME280;70830;42.290;-71.354;2023-06-22T11:46:23;101918.72;;;20.46;55.80
81379;BME280;70830;42.290;-71.354;2023-06-22T11:48:49;101913.06;;;20.51;55.71
81379;BME280;70830;42.290;-71.354;2023-06-22T11:51:15;101913.31;;;20.60;55.79
81379;BME280;70830;42.290;-71.354;2023-06-22T11:53:41;101907.59;;;20.52;55.13
81379;BME280;70830;42.290;-71.354;2023-06-22T11:56:07;101898.41;;;20.56;55.30
81379;BME280;70830;42.290;-71.354;2023-06-22T11:58:32;101900.44;;;20.93;54.60
81379;BME280;70830;42.290;-71.354;2023-06-22T12:01:00;101902.34;;;21.20;54.14
81379;BME280;70830;42.290;-71.354;2023-06-22T12:03:26;101892.13;;;21.51;52.60
81379;BME280;70830;42.290;-71.354;2023-06-22T12:05:52;101897.31;;;22.19;52.72
81379;BME280;70830;42.290;-71.354;2023-06-22T12:08:18;101903.66;;;23.04;51.42
81379;BME280;70830;42.290;-71.354;2023-06-22T12:10:44;101904.69;;;23.38;49.09
81379;BME280;70830;42.290;-71.354;2023-06-22T12:13:10;101906.06;;;23.67;48.42
81379;BME280;70830;42.290;-71.354;2023-06-22T12:15:36;101900.72;;;23.89;48.34
81379;BME280;70830;42.290;-71.354;2023-06-22T12:18:02;101901.44;;;24.15;47.45
81379;BME280;70830;42.290;-71.354;2023-06-22T12:20:28;101900.97;;;24.32;47.37
81379;BME280;70830;42.290;-71.354;2023-06-22T12:22:54;101895.56;;;24.65;46.13
81379;BME280;70830;42.290;-71.354;2023-06-22T12:25:22;101899.25;;;24.98;45.76
81379;BME280;70830;42.290;-71.354;2023-06-22T12:27:48;101899.69;;;25.14;45.30
81379;BME280;70830;42.290;-71.354;2023-06-22T12:30:16;101901.00;;;25.30;44.11
81379;BME280;70830;42.290;-71.354;2023-06-22T12:32:42;101897.75;;;25.48;44.77
81379;BME280;70830;42.290;-71.354;2023-06-22T12:35:08;101898.63;;;25.48;44.61
81379;BME280;70830;42.290;-71.354;2023-06-22T12:37:42;101889.53;;;25.49;43.68